Flight Track Log - Related Links

Times and Time Zones

All times are in EDT time to prevent confusion due to time zone crossing. See the SKW6345 flight status page for this flight to view local times or setup timezone preferences in your user account.

Time Position Orientation Groundspeed Altitude Reporting Facility
EDT Latitude Longitude Course Direction KTS MPH feet Rate Location/Type
Fri 11:24:33 AM 37.6500 -122.3500 38° Northeast 163 188 1,400  Level Northern Cal TRACON
Fri 11:25:33 AM 37.7000 -122.3333 15° North 203 234 3,700 2,050 Climbing Northern Cal TRACON
Fri 11:26:33 AM 37.7667 -122.3000 22° Northeast 257 296 5,500 1,937 Climbing Northern Cal TRACON
Fri 11:27:00 AM 37.6804 -122.3030 38° Northeast  Level FlightAware Approximate
Fri 11:28:00 AM 37.7822 -122.2012 38° Northeast  Level FlightAware Approximate
Fri 11:28:11 AM 37.8486 -122.2064 42° Northeast 273 314 8,800  Level Oakland Center
Fri 11:29:00 AM 37.8840 -122.0993 38° Northeast  Level FlightAware Approximate
Fri 11:29:13 AM 37.9247 -122.1250 40° Northeast 296 341 11,600  Level Oakland Center
Fri 11:30:14 AM 37.9908 -122.0531 41° Northeast 314 361 13,100 1,317 Climbing Oakland Center
Fri 11:31:16 AM 38.0664 -121.9811 37° Northeast 338 389 14,300 1,268 Climbing Oakland Center
Fri 11:32:17 AM 38.1494 -121.9161 32° Northeast 349 402 15,700 1,171 Climbing Oakland Center
Fri 11:33:19 AM 38.2325 -121.8456 34° Northeast 359 413 16,700 1,171 Climbing Oakland Center
Fri 11:34:20 AM 38.3183 -121.7728 34° Northeast 370 426 18,100 1,220 Climbing Oakland Center
Fri 11:35:22 AM 38.4058 -121.6967 34° Northeast 380 437 19,200 1,024 Climbing Oakland Center
Fri 11:36:23 AM 38.5019 -121.6167 33° Northeast 388 447 20,200 976 Climbing Oakland Center
Fri 11:37:25 AM 38.5961 -121.5375 33° Northeast 398 458 21,200 976 Climbing Oakland Center
Fri 11:38:26 AM 38.6922 -121.4561 33° Northeast 404 465 22,200 976 Climbing Oakland Center
Fri 11:39:28 AM 38.7883 -121.3739 34° Northeast 409 471 23,200 1,024 Climbing Oakland Center
Fri 11:40:29 AM 38.8828 -121.2919 34° Northeast 408 470 24,300 927 Climbing Oakland Center
Fri 11:41:31 AM 38.9761 -121.2089 35° Northeast 406 467 25,100 780 Climbing Oakland Center
Fri 11:42:32 AM 39.0908 -121.1092 34° Northeast 413 475 25,900 732 Climbing Oakland Center
Fri 11:43:34 AM 39.1875 -121.0264 34° Northeast 417 480 26,600 732 Climbing Oakland Center
Fri 11:44:35 AM 39.2836 -120.9403 35° Northeast 419 482 27,400 732 Climbing Oakland Center
Fri 11:45:37 AM 39.3814 -120.8564 34° Northeast 421 484 28,100 585 Climbing Oakland Center
Fri 11:46:38 AM 39.4786 -120.7706 34° Northeast 423 487 28,600 488 Climbing Oakland Center
Fri 11:47:40 AM 39.5775 -120.6844 34° Northeast 428 493 29,100 488 Climbing Oakland Center
Fri 11:48:41 AM 39.6769 -120.5956 35° Northeast 433 498 29,600 488 Climbing Oakland Center
Fri 11:49:43 AM 39.7781 -120.5083 34° Northeast 435 501 30,100 488 Climbing Oakland Center
Fri 11:50:44 AM 39.8769 -120.4175 35° Northeast 436 502 30,600 537 Climbing Oakland Center
Fri 11:51:46 AM 39.9978 -120.3114 34° Northeast 436 502 31,200 537 Climbing Oakland Center
Fri 11:52:47 AM 40.0919 -120.2281 34° Northeast 437 503 31,700 488 Climbing Oakland Center
Fri 11:53:49 AM 40.1922 -120.1369 35° Northeast 437 503 32,200 488 Climbing Oakland Center
Fri 11:54:50 AM 40.2925 -120.0458 35° Northeast 439 505 32,700 390 Climbing Oakland Center
Fri 11:55:52 AM 40.3919 -119.9553 35° Northeast 437 503 33,000 146 Climbing Oakland Center
Fri 11:56:53 AM 40.4928 -119.8636 35° Northeast 437 503 33,000  Level Oakland Center
Fri 11:57:55 AM 40.6089 -119.7586 34° Northeast 440 506 33,000  Level Oakland Center
Fri 11:58:56 AM 40.7133 -119.6614 35° Northeast 456 525 33,000  Level Oakland Center
Fri 11:59:58 AM 40.8250 -119.5592 35° Northeast 462 532 33,000  Level Oakland Center
Fri 12:00:59 PM 40.9256 -119.4664 35° Northeast 459 528 33,000  Level Oakland Center
Fri 12:01:52 PM 41.0247 -119.3725 36° Northeast 459 528 33,000  Level Salt Lake Center
Fri 12:02:54 PM 41.1267 -119.2797 34° Northeast 461 531 33,000  Level Salt Lake Center
Fri 12:03:56 PM 41.2439 -119.1700 35° Northeast 461 531 33,000  Level Salt Lake Center
Fri 12:04:58 PM 41.3444 -119.0747 35° Northeast 461 531 33,000  Level Salt Lake Center
Fri 12:06:00 PM 41.4614 -118.9650 35° Northeast 461 531 33,000  Level Salt Lake Center
Fri 12:07:02 PM 41.5619 -118.8697 35° Northeast 461 531 33,000  Level Salt Lake Center
Fri 12:08:05 PM 41.6628 -118.7728 36° Northeast 463 533 33,000  Level Salt Lake Center
Fri 12:09:07 PM 41.7786 -118.6619 35° Northeast 461 531 33,000  Level Salt Lake Center
Fri 12:10:09 PM 41.8792 -118.5672 35° Northeast 460 529 33,000  Level Salt Lake Center
Fri 12:11:11 PM 41.9958 -118.4528 36° Northeast 462 532 33,000  Level Salt Lake Center
Fri 12:12:13 PM 42.0950 -118.3564 36° Northeast 461 531 33,000  Level Salt Lake Center
Fri 12:13:15 PM 42.2106 -118.2447 36° Northeast 459 528 33,000  Level Salt Lake Center
Fri 12:14:17 PM 42.3114 -118.1453 36° Northeast 463 533 33,000  Level Salt Lake Center
Fri 12:15:19 PM 42.4275 -118.0286 37° Northeast 460 529 33,000  Level Salt Lake Center
Fri 12:16:21 PM 42.5267 -117.9311 36° Northeast 460 529 33,000  Level Salt Lake Center
Fri 12:17:23 PM 42.6297 -117.7964 44° Northeast 464 534 33,000  Level Salt Lake Center
Fri 12:18:25 PM 42.7028 -117.6614 54° Northeast 464 534 33,000  Level Salt Lake Center
Fri 12:19:27 PM 42.7756 -117.5261 54° Northeast 461 531 33,000  Level Salt Lake Center
Fri 12:20:29 PM 42.8653 -117.3603 54° Northeast 468 539 33,000  Level Salt Lake Center
Fri 12:21:31 PM 42.9381 -117.2225 54° Northeast 464 534 33,000  Level Salt Lake Center
Fri 12:22:33 PM 43.0183 -117.0742 53° Northeast 465 535 33,000  Level Salt Lake Center
Fri 12:23:35 PM 43.0972 -116.9250 54° Northeast 464 534 33,000  Level Salt Lake Center
Fri 12:24:37 PM 43.1781 -116.7731 54° Northeast 470 541 33,000  Level Salt Lake Center
Fri 12:25:39 PM 43.2569 -116.6228 54° Northeast 466 536 33,000  Level Salt Lake Center
Fri 12:26:41 PM 43.3369 -116.4708 54° Northeast 470 541 33,000  Level Salt Lake Center
Fri 12:27:43 PM 43.4103 -116.3294 54° Northeast 470 541 33,000  Level Salt Lake Center
Fri 12:28:45 PM 43.4900 -116.1764 54° Northeast 471 542 33,000  Level Salt Lake Center
Fri 12:29:47 PM 43.5694 -116.0217 55° Northeast 473 544 33,000  Level Salt Lake Center
Fri 12:30:49 PM 43.6481 -115.8672 55° Northeast 471 542 33,000  Level Salt Lake Center
Fri 12:31:51 PM 43.7275 -115.7122 55° Northeast 472 543 33,000  Level Salt Lake Center
Fri 12:32:53 PM 43.8061 -115.5575 55° Northeast 469 540 33,000  Level Salt Lake Center
Fri 12:33:56 PM 43.8792 -115.4139 55° Northeast 473 544 33,000  Level Salt Lake Center
Fri 12:34:58 PM 43.9572 -115.2564 55° Northeast 474 545 33,000  Level Salt Lake Center
Fri 12:36:00 PM 44.0361 -115.1006 55° Northeast 473 544 33,000  Level Salt Lake Center
Fri 12:37:02 PM 44.1075 -114.9550 56° Northeast 475 547 33,000  Level Salt Lake Center
Fri 12:38:04 PM 44.1914 -114.7875 55° Northeast 473 544 33,000  Level Salt Lake Center
Fri 12:39:06 PM 44.2611 -114.6422 56° Northeast 471 542 33,000  Level Salt Lake Center
Fri 12:40:08 PM 44.3436 -114.4742 55° Northeast 470 541 33,000  Level Salt Lake Center
Fri 12:41:10 PM 44.4133 -114.3292 56° Northeast 470 541 33,000  Level Salt Lake Center
Fri 12:42:12 PM 44.4947 -114.1614 56° Northeast 468 539 33,000  Level Salt Lake Center
Fri 12:43:14 PM 44.5636 -114.0167 56° Northeast 466 536 33,000 -97 Level Salt Lake Center
Fri 12:44:16 PM 44.6439 -113.8472 56° Northeast 466 536 32,800 -435 Descending Salt Lake Center
Fri 12:45:18 PM 44.7117 -113.6989 57° Northeast 470 541 32,100 -726 Descending Salt Lake Center
Fri 12:46:20 PM 44.7847 -113.5472 56° Northeast 484 557 31,300 -532 Descending Salt Lake Center
Fri 12:47:22 PM 44.8714 -113.3658 56° Northeast 497 572 31,000 -145 Descending Salt Lake Center
Fri 12:48:24 PM 44.9431 -113.2144 56° Northeast 487 560 31,000  Level Salt Lake Center
Fri 12:49:26 PM 45.0231 -113.0381 57° Northeast 479 551 31,000  Level Salt Lake Center
Fri 12:50:28 PM 45.0933 -112.8897 56° Northeast 474 545 31,000 -48 Level Salt Lake Center
Fri 12:51:30 PM 45.1714 -112.7192 57° Northeast 466 536 30,900 -1,113 Descending Salt Lake Center
Fri 12:52:32 PM 45.2358 -112.5742 58° Northeast 454 522 28,700 -2,613 Descending Salt Lake Center
Fri 12:54:36 PM 45.3589 -112.2656 60° Northeast 425 489 22,800 -2,839 Descending Salt Lake Center
Fri 12:55:38 PM 45.4158 -112.1164 61° Northeast 414 476 19,900 -2,565 Descending Salt Lake Center
Fri 12:56:40 PM 45.4686 -111.9831 61° Northeast 394 453 17,500 -2,468 Descending Salt Lake Center
Fri 12:57:42 PM 45.5183 -111.8542 61° Northeast 377 434 14,800 -2,146 Descending Salt Lake Center
Fri 12:58:43 PM 45.5661 -111.7300 61° Northeast 363 418 13,100 -1,073 Descending Salt Lake Center
Fri 12:59:45 PM 45.6161 -111.5972 62° Northeast 373 429 12,600 -871 Descending Salt Lake Center
Fri 01:00:47 PM 45.6806 -111.4333 61° Northeast 388 447 11,300 -1,065 Descending Salt Lake Center
Fri 01:01:49 PM 45.7564 -111.3558 35° Northeast 351 404 10,400 -581 Descending Salt Lake Center
Fri 01:02:51 PM 45.8278 -111.3556 360° North 285 328 10,100 -290 Descending Salt Lake Center

Login

Don't have an account? Register now (free) for customized features, flight alerts, and more!